Rechercher aéroport 
image banner adimage banner adimage banner ad
image banner ad

92CL - Moronis

Situé à Meridian, United States

ICAO - 92CL, IATA -

Données fournies par Airmate  

Information générale

Coordonnées: N39°6'12" W121°51'1"
Élévation : 35 feet MSL.
Variation magnétique : 16° East
Voir autres Aéroports à California

Données opérationnelles

Special qualification required
Heure actuelle UTC:
Heure actuelle locale:
Météo à : KMYV - Yuba County ( 24 km )
METAR: KMYV 262253Z AUTO 15012KT 10SM CLR 32/09 A2981 RMK AO2 SLP098 T03220094
Voir NOTAMs / SUP AIP / TFR affectant cet aéroport [VIEW]
Fréquences de communication: [VIEW]

Pistes:

Identifiant RWYQFULongueur (ft)Largeur (ft)SurfaceLDA (ft)
16240050ASPH
34240050ASPH

Coordonnées de l'aéroport

Adresse: Meridian United States

Vue satellite de 92CL